KBGE/BGE METAR and TAF weather

Enter ICAO airport designator
Station Type Date Time Source
KBGE METAR 2020/02/24 07:35 UTC NOAA

KBGE 240735Z AUTO 12004KT 10SM OVC090 12/06 A3010 RMK AO2 T01230062


Station Type Date Time Source
KBGE Decoded METAR 2020/02/24 07:35 UTC NOAA

Bainbridge, Decatur County Industrial Air Park Airport, GA, United States (KBGE) 30-58N 084-38W
Feb 24, 2020 - 02:35 AM EST / 2020.02.24 0735 UTC
Wind: from the ESE (120 degrees) at 5 MPH (4 KT):0
Visibility: 10 mile(s):0
Sky conditions: overcast
Temperature: 54.1 F (12.3 C)
Dew Point: 43.2 F (6.2 C)
Relative Humidity: 66%
Pressure (altimeter): 30.1 in. Hg (1019 hPa)
ob: KBGE 240735Z AUTO 12004KT 10SM OVC090 12/06 A3010 RMK AO2 T01230062
cycle: 7

Station Type Date Time Source
KBGE TAF UTC NOAA

Error!

Example: see airport list